sensor_id;sensor_type;location;lat;lon;timestamp;pressure;altitude;pressure_sealevel;temperature;humidity
67345;BME280;54230;52.402;6.276;2022-12-31T00:00:00;100280.0;;;11.7;100.0
67345;BME280;54230;52.402;6.276;2022-12-31T00:05:00;100280.0;;;11.6;100.0
67345;BME280;54230;52.402;6.276;2022-12-31T00:10:00;100280.0;;;11.6;100.0
67345;BME280;54230;52.402;6.276;2022-12-31T00:15:00;100280.0;;;11.6;100.0
67345;BME280;54230;52.402;6.276;2022-12-31T00:20:00;100290.0;;;11.6;100.0
67345;BME280;54230;52.402;6.276;2022-12-31T00:25:00;100280.0;;;11.6;100.0
67345;BME280;54230;52.402;6.276;2022-12-31T00:30:00;100290.0;;;11.6;100.0
67345;BME280;54230;52.402;6.276;2022-12-31T00:35:00;100300.0;;;11.6;100.0
67345;BME280;54230;52.402;6.276;2022-12-31T00:40:00;100290.0;;;11.6;100.0
67345;BME280;54230;52.402;6.276;2022-12-31T00:45:00;100300.0;;;11.6;100.0
67345;BME280;54230;52.402;6.276;2022-12-31T00:50:00;100290.0;;;11.6;100.0
67345;BME280;54230;52.402;6.276;2022-12-31T00:55:00;100300.0;;;11.6;100.0
67345;BME280;54230;52.402;6.276;2022-12-31T01:00:00;100300.0;;;11.5;100.0
67345;BME280;54230;52.402;6.276;2022-12-31T01:05:00;100310.0;;;11.6;100.0
67345;BME280;54230;52.402;6.276;2022-12-31T01:10:00;100320.0;;;11.6;100.0
67345;BME280;54230;52.402;6.276;2022-12-31T01:15:00;100320.0;;;11.5;100.0
67345;BME280;54230;52.402;6.276;2022-12-31T01:20:00;100320.0;;;11.5;100.0
67345;BME280;54230;52.402;6.276;2022-12-31T01:25:00;100320.0;;;11.5;100.0
67345;BME280;54230;52.402;6.276;2022-12-31T01:30:00;100320.0;;;11.5;100.0
67345;BME280;54230;52.402;6.276;2022-12-31T01:35:00;100330.0;;;11.5;100.0
67345;BME280;54230;52.402;6.276;2022-12-31T01:40:00;100320.0;;;11.5;100.0
67345;BME280;54230;52.402;6.276;2022-12-31T01:45:00;100320.0;;;11.5;100.0
67345;BME280;54230;52.402;6.276;2022-12-31T01:50:03;100320.0;;;11.5;100.0
67345;BME280;54230;52.402;6.276;2022-12-31T01:55:04;100330.0;;;11.5;100.0
67345;BME280;54230;52.402;6.276;2022-12-31T02:00:01;100330.0;;;11.5;100.0
67345;BME280;54230;52.402;6.276;2022-12-31T02:05:04;100330.0;;;11.5;100.0
67345;BME280;54230;52.402;6.276;2022-12-31T02:10:00;100310.0;;;11.4;100.0
67345;BME280;54230;52.402;6.276;2022-12-31T02:15:00;100310.0;;;11.4;100.0
67345;BME280;54230;52.402;6.276;2022-12-31T02:20:18;100320.0;;;11.4;100.0
67345;BME280;54230;52.402;6.276;2022-12-31T02:25:12;100330.0;;;11.4;100.0
67345;BME280;54230;52.402;6.276;2022-12-31T02:30:05;100320.0;;;11.4;100.0
67345;BME280;54230;52.402;6.276;2022-12-31T02:35:05;100320.0;;;11.3;100.0
67345;BME280;54230;52.402;6.276;2022-12-31T02:40:00;100320.0;;;11.3;100.0
67345;BME280;54230;52.402;6.276;2022-12-31T02:45:00;100320.0;;;11.3;100.0
67345;BME280;54230;52.402;6.276;2022-12-31T02:50:17;100290.0;;;11.2;100.0
67345;BME280;54230;52.402;6.276;2022-12-31T02:55:08;100280.0;;;11.2;100.0
67345;BME280;54230;52.402;6.276;2022-12-31T03:00:03;100280.0;;;11.2;100.0
67345;BME280;54230;52.402;6.276;2022-12-31T03:05:01;100280.0;;;11.2;100.0
67345;BME280;54230;52.402;6.276;2022-12-31T03:10:00;100300.0;;;11.2;100.0
67345;BME280;54230;52.402;6.276;2022-12-31T03:15:00;100300.0;;;11.2;100.0
67345;BME280;54230;52.402;6.276;2022-12-31T03:20:00;100310.0;;;11.2;100.0
67345;BME280;54230;52.402;6.276;2022-12-31T03:25:03;100320.0;;;11.2;100.0
67345;BME280;54230;52.402;6.276;2022-12-31T03:30:00;100340.0;;;11.2;100.0
67345;BME280;54230;52.402;6.276;2022-12-31T03:35:00;100330.0;;;11.1;100.0
67345;BME280;54230;52.402;6.276;2022-12-31T03:40:00;100320.0;;;11.1;100.0
67345;BME280;54230;52.402;6.276;2022-12-31T03:45:00;100330.0;;;11.1;100.0
67345;BME280;54230;52.402;6.276;2022-12-31T03:50:00;100340.0;;;11.1;100.0
67345;BME280;54230;52.402;6.276;2022-12-31T03:55:00;100340.0;;;11.0;100.0
67345;BME280;54230;52.402;6.276;2022-12-31T04:00:00;100340.0;;;11.1;100.0
67345;BME280;54230;52.402;6.276;2022-12-31T04:05:00;100340.0;;;11.0;100.0
67345;BME280;54230;52.402;6.276;2022-12-31T04:10:01;100350.0;;;11.0;100.0
67345;BME280;54230;52.402;6.276;2022-12-31T04:15:00;100320.0;;;10.9;100.0
67345;BME280;54230;52.402;6.276;2022-12-31T04:20:00;100310.0;;;11.0;100.0
67345;BME280;54230;52.402;6.276;2022-12-31T04:25:00;100310.0;;;11.0;100.0
67345;BME280;54230;52.402;6.276;2022-12-31T04:30:00;100320.0;;;10.9;100.0
67345;BME280;54230;52.402;6.276;2022-12-31T04:35:00;100300.0;;;11.0;100.0
67345;BME280;54230;52.402;6.276;2022-12-31T04:40:00;100290.0;;;10.9;100.0
67345;BME280;54230;52.402;6.276;2022-12-31T04:45:00;100300.0;;;10.8;100.0
67345;BME280;54230;52.402;6.276;2022-12-31T04:50:00;100320.0;;;10.9;100.0
67345;BME280;54230;52.402;6.276;2022-12-31T04:55:00;100310.0;;;10.9;100.0
67345;BME280;54230;52.402;6.276;2022-12-31T05:00:00;100300.0;;;10.9;100.0
67345;BME280;54230;52.402;6.276;2022-12-31T05:05:00;100320.0;;;10.9;100.0
67345;BME280;54230;52.402;6.276;2022-12-31T05:10:00;100320.0;;;10.8;100.0
67345;BME280;54230;52.402;6.276;2022-12-31T05:15:00;100320.0;;;10.8;100.0
67345;BME280;54230;52.402;6.276;2022-12-31T05:20:00;100310.0;;;10.8;100.0
67345;BME280;54230;52.402;6.276;2022-12-31T05:25:00;100320.0;;;10.8;100.0
67345;BME280;54230;52.402;6.276;2022-12-31T05:30:00;100330.0;;;10.8;100.0
67345;BME280;54230;52.402;6.276;2022-12-31T05:35:00;100320.0;;;10.7;100.0
67345;BME280;54230;52.402;6.276;2022-12-31T05:40:00;100320.0;;;10.7;100.0
67345;BME280;54230;52.402;6.276;2022-12-31T05:45:00;100320.0;;;10.7;100.0
67345;BME280;54230;52.402;6.276;2022-12-31T05:50:00;100330.0;;;10.7;100.0
67345;BME280;54230;52.402;6.276;2022-12-31T05:55:00;100320.0;;;10.7;100.0
67345;BME280;54230;52.402;6.276;2022-12-31T06:00:00;100320.0;;;10.7;100.0
67345;BME280;54230;52.402;6.276;2022-12-31T06:05:00;100320.0;;;10.7;100.0
67345;BME280;54230;52.402;6.276;2022-12-31T06:10:00;100330.0;;;10.7;100.0
67345;BME280;54230;52.402;6.276;2022-12-31T06:15:00;100320.0;;;10.7;100.0
67345;BME280;54230;52.402;6.276;2022-12-31T06:20:00;100330.0;;;10.7;100.0
67345;BME280;54230;52.402;6.276;2022-12-31T06:25:00;100340.0;;;10.8;100.0
67345;BME280;54230;52.402;6.276;2022-12-31T06:30:00;100330.0;;;10.8;100.0
67345;BME280;54230;52.402;6.276;2022-12-31T06:35:00;100320.0;;;10.8;100.0
67345;BME280;54230;52.402;6.276;2022-12-31T06:40:00;100320.0;;;10.9;100.0
67345;BME280;54230;52.402;6.276;2022-12-31T06:45:00;100320.0;;;10.9;100.0
67345;BME280;54230;52.402;6.276;2022-12-31T06:50:00;100320.0;;;11.0;100.0
67345;BME280;54230;52.402;6.276;2022-12-31T06:55:00;100330.0;;;11.0;100.0
67345;BME280;54230;52.402;6.276;2022-12-31T07:00:01;100340.0;;;11.0;100.0
67345;BME280;54230;52.402;6.276;2022-12-31T07:05:12;100340.0;;;11.0;100.0
67345;BME280;54230;52.402;6.276;2022-12-31T07:10:07;100340.0;;;11.1;100.0
67345;BME280;54230;52.402;6.276;2022-12-31T07:15:03;100350.0;;;11.1;100.0
67345;BME280;54230;52.402;6.276;2022-12-31T07:20:07;100350.0;;;11.1;100.0
67345;BME280;54230;52.402;6.276;2022-12-31T07:25:00;100350.0;;;11.2;100.0
67345;BME280;54230;52.402;6.276;2022-12-31T07:30:04;100350.0;;;11.2;100.0
67345;BME280;54230;52.402;6.276;2022-12-31T07:35:04;100340.0;;;11.3;100.0
67345;BME280;54230;52.402;6.276;2022-12-31T07:40:07;100340.0;;;11.4;100.0
67345;BME280;54230;52.402;6.276;2022-12-31T07:45:08;100320.0;;;11.5;100.0
67345;BME280;54230;52.402;6.276;2022-12-31T07:50:00;100320.0;;;11.6;100.0
67345;BME280;54230;52.402;6.276;2022-12-31T07:55:00;100330.0;;;11.7;100.0
67345;BME280;54230;52.402;6.276;2022-12-31T08:00:04;100340.0;;;11.8;100.0
67345;BME280;54230;52.402;6.276;2022-12-31T08:05:04;100360.0;;;11.9;100.0
67345;BME280;54230;52.402;6.276;2022-12-31T08:10:04;100360.0;;;12.0;100.0
67345;BME280;54230;52.402;6.276;2022-12-31T08:15:00;100370.0;;;12.1;100.0
67345;BME280;54230;52.402;6.276;2022-12-31T08:20:00;100380.0;;;12.2;100.0
67345;BME280;54230;52.402;6.276;2022-12-31T08:25:11;100380.0;;;12.2;100.0
67345;BME280;54230;52.402;6.276;2022-12-31T08:30:04;100400.0;;;12.3;100.0
67345;BME280;54230;52.402;6.276;2022-12-31T08:35:05;100400.0;;;12.3;100.0
67345;BME280;54230;52.402;6.276;2022-12-31T08:40:11;100370.0;;;12.4;100.0
67345;BME280;54230;52.402;6.276;2022-12-31T08:45:05;100370.0;;;12.3;100.0
67345;BME280;54230;52.402;6.276;2022-12-31T08:50:00;100390.0;;;12.5;100.0
67345;BME280;54230;52.402;6.276;2022-12-31T08:55:00;100410.0;;;12.5;100.0
67345;BME280;54230;52.402;6.276;2022-12-31T09:00:04;100420.0;;;12.5;100.0
67345;BME280;54230;52.402;6.276;2022-12-31T09:05:07;100390.0;;;12.5;100.0
67345;BME280;54230;52.402;6.276;2022-12-31T09:10:04;100410.0;;;12.5;100.0
67345;BME280;54230;52.402;6.276;2022-12-31T09:15:05;100420.0;;;12.4;100.0
67345;BME280;54230;52.402;6.276;2022-12-31T09:20:01;100460.0;;;12.5;100.0
67345;BME280;54230;52.402;6.276;2022-12-31T09:25:00;100460.0;;;12.5;100.0
67345;BME280;54230;52.402;6.276;2022-12-31T09:30:03;100470.0;;;12.4;100.0
67345;BME280;54230;52.402;6.276;2022-12-31T09:35:05;100470.0;;;12.4;100.0
67345;BME280;54230;52.402;6.276;2022-12-31T09:40:09;100470.0;;;12.4;100.0
67345;BME280;54230;52.402;6.276;2022-12-31T09:45:09;100500.0;;;12.5;100.0
67345;BME280;54230;52.402;6.276;2022-12-31T09:50:20;100490.0;;;12.5;100.0
67345;BME280;54230;52.402;6.276;2022-12-31T09:55:24;100500.0;;;12.6;100.0
67345;BME280;54230;52.402;6.276;2022-12-31T10:00:07;100490.0;;;12.6;100.0
67345;BME280;54230;52.402;6.276;2022-12-31T10:05:15;100500.0;;;12.9;100.0
67345;BME280;54230;52.402;6.276;2022-12-31T10:10:12;100540.0;;;12.9;100.0
67345;BME280;54230;52.402;6.276;2022-12-31T10:15:17;100510.0;;;13.1;100.0
67345;BME280;54230;52.402;6.276;2022-12-31T10:20:15;100540.0;;;13.2;100.0
67345;BME280;54230;52.402;6.276;2022-12-31T10:25:17;100520.0;;;13.2;100.0
67345;BME280;54230;52.402;6.276;2022-12-31T10:30:07;100500.0;;;13.2;100.0
67345;BME280;54230;52.402;6.276;2022-12-31T10:35:13;100480.0;;;13.3;100.0
67345;BME280;54230;52.402;6.276;2022-12-31T10:40:14;100470.0;;;13.3;100.0
67345;BME280;54230;52.402;6.276;2022-12-31T10:50:14;100500.0;;;13.5;100.0
67345;BME280;54230;52.402;6.276;2022-12-31T10:55:11;100490.0;;;13.5;100.0
67345;BME280;54230;52.402;6.276;2022-12-31T11:00:09;100490.0;;;13.6;100.0
67345;BME280;54230;52.402;6.276;2022-12-31T11:05:11;100490.0;;;13.6;100.0
67345;BME280;54230;52.402;6.276;2022-12-31T11:10:15;100480.0;;;13.6;100.0
67345;BME280;54230;52.402;6.276;2022-12-31T11:15:12;100490.0;;;13.7;100.0
67345;BME280;54230;52.402;6.276;2022-12-31T11:20:14;100500.0;;;13.7;100.0
67345;BME280;54230;52.402;6.276;2022-12-31T11:25:21;100490.0;;;13.8;100.0
67345;BME280;54230;52.402;6.276;2022-12-31T11:30:05;100490.0;;;13.7;100.0
67345;BME280;54230;52.402;6.276;2022-12-31T11:35:14;100500.0;;;13.7;100.0
67345;BME280;54230;52.402;6.276;2022-12-31T11:40:14;100490.0;;;13.6;100.0
67345;BME280;54230;52.402;6.276;2022-12-31T11:45:07;100490.0;;;13.6;100.0
67345;BME280;54230;52.402;6.276;2022-12-31T11:50:16;100510.0;;;13.6;100.0
67345;BME280;54230;52.402;6.276;2022-12-31T11:55:15;100480.0;;;13.5;100.0
67345;BME280;54230;52.402;6.276;2022-12-31T12:00:05;100510.0;;;13.6;100.0
67345;BME280;54230;52.402;6.276;2022-12-31T12:05:02;100490.0;;;13.6;100.0
67345;BME280;54230;52.402;6.276;2022-12-31T12:10:05;100490.0;;;13.5;100.0
67345;BME280;54230;52.402;6.276;2022-12-31T12:15:06;100480.0;;;13.5;100.0
67345;BME280;54230;52.402;6.276;2022-12-31T12:20:03;100490.0;;;13.5;100.0
67345;BME280;54230;52.402;6.276;2022-12-31T12:25:04;100500.0;;;13.5;100.0
67345;BME280;54230;52.402;6.276;2022-12-31T12:30:07;100510.0;;;13.6;100.0
67345;BME280;54230;52.402;6.276;2022-12-31T12:35:00;100490.0;;;13.7;100.0
67345;BME280;54230;52.402;6.276;2022-12-31T12:40:03;100500.0;;;13.8;100.0
67345;BME280;54230;52.402;6.276;2022-12-31T12:45:03;100510.0;;;13.9;100.0
67345;BME280;54230;52.402;6.276;2022-12-31T12:50:00;100500.0;;;13.9;100.0
67345;BME280;54230;52.402;6.276;2022-12-31T12:55:11;100490.0;;;13.9;100.0
67345;BME280;54230;52.402;6.276;2022-12-31T13:00:07;100500.0;;;13.9;100.0
67345;BME280;54230;52.402;6.276;2022-12-31T13:05:08;100500.0;;;13.9;100.0
67345;BME280;54230;52.402;6.276;2022-12-31T13:10:11;100490.0;;;13.9;100.0
67345;BME280;54230;52.402;6.276;2022-12-31T13:15:04;100490.0;;;13.9;100.0
67345;BME280;54230;52.402;6.276;2022-12-31T13:20:04;100510.0;;;14.0;100.0
67345;BME280;54230;52.402;6.276;2022-12-31T13:25:04;100480.0;;;14.0;100.0
67345;BME280;54230;52.402;6.276;2022-12-31T13:30:02;100490.0;;;14.1;100.0
67345;BME280;54230;52.402;6.276;2022-12-31T13:35:05;100510.0;;;14.2;100.0
67345;BME280;54230;52.402;6.276;2022-12-31T13:40:04;100500.0;;;14.3;100.0
67345;BME280;54230;52.402;6.276;2022-12-31T13:45:02;100550.0;;;14.4;100.0
67345;BME280;54230;52.402;6.276;2022-12-31T13:50:07;100530.0;;;14.4;100.0
67345;BME280;54230;52.402;6.276;2022-12-31T13:55:03;100520.0;;;14.2;100.0
67345;BME280;54230;52.402;6.276;2022-12-31T14:00:04;100520.0;;;14.1;100.0
67345;BME280;54230;52.402;6.276;2022-12-31T14:05:05;100530.0;;;14.0;100.0
67345;BME280;54230;52.402;6.276;2022-12-31T14:10:00;100520.0;;;13.9;100.0
67345;BME280;54230;52.402;6.276;2022-12-31T14:15:07;100540.0;;;13.9;100.0
67345;BME280;54230;52.402;6.276;2022-12-31T14:20:05;100520.0;;;13.7;100.0
67345;BME280;54230;52.402;6.276;2022-12-31T14:25:02;100530.0;;;13.8;100.0
67345;BME280;54230;52.402;6.276;2022-12-31T14:30:02;100550.0;;;13.8;100.0
67345;BME280;54230;52.402;6.276;2022-12-31T14:35:11;100520.0;;;13.7;100.0
67345;BME280;54230;52.402;6.276;2022-12-31T14:40:08;100550.0;;;13.9;100.0
67345;BME280;54230;52.402;6.276;2022-12-31T14:45:06;100540.0;;;13.9;100.0
67345;BME280;54230;52.402;6.276;2022-12-31T14:50:04;100540.0;;;14.0;100.0
67345;BME280;54230;52.402;6.276;2022-12-31T14:55:18;100540.0;;;14.0;100.0
67345;BME280;54230;52.402;6.276;2022-12-31T15:00:19;100550.0;;;14.1;100.0
67345;BME280;54230;52.402;6.276;2022-12-31T15:05:04;100550.0;;;14.1;100.0
67345;BME280;54230;52.402;6.276;2022-12-31T15:10:08;100560.0;;;14.0;100.0
67345;BME280;54230;52.402;6.276;2022-12-31T15:15:07;100580.0;;;13.8;100.0
67345;BME280;54230;52.402;6.276;2022-12-31T15:25:00;100610.0;;;13.5;100.0
67345;BME280;54230;52.402;6.276;2022-12-31T15:30:01;100610.0;;;13.6;100.0
67345;BME280;54230;52.402;6.276;2022-12-31T15:35:02;100610.0;;;13.6;100.0
67345;BME280;54230;52.402;6.276;2022-12-31T15:40:18;100620.0;;;13.6;100.0
67345;BME280;54230;52.402;6.276;2022-12-31T15:45:03;100590.0;;;13.7;100.0
67345;BME280;54230;52.402;6.276;2022-12-31T15:50:03;100580.0;;;13.6;100.0
67345;BME280;54230;52.402;6.276;2022-12-31T15:55:03;100590.0;;;13.8;100.0
67345;BME280;54230;52.402;6.276;2022-12-31T16:00:03;100590.0;;;13.9;100.0
67345;BME280;54230;52.402;6.276;2022-12-31T16:05:00;100580.0;;;13.9;100.0
67345;BME280;54230;52.402;6.276;2022-12-31T16:10:08;100570.0;;;14.0;100.0
67345;BME280;54230;52.402;6.276;2022-12-31T16:15:00;100550.0;;;13.9;100.0
67345;BME280;54230;52.402;6.276;2022-12-31T16:20:02;100560.0;;;14.0;97.4
67345;BME280;54230;52.402;6.276;2022-12-31T16:25:00;100580.0;;;14.2;97.1
67345;BME280;54230;52.402;6.276;2022-12-31T16:30:04;100590.0;;;14.3;93.3
67345;BME280;54230;52.402;6.276;2022-12-31T16:35:00;100570.0;;;14.4;90.7
67345;BME280;54230;52.402;6.276;2022-12-31T16:40:11;100560.0;;;14.4;91.3
67345;BME280;54230;52.402;6.276;2022-12-31T16:45:16;100560.0;;;14.5;91.9
67345;BME280;54230;52.402;6.276;2022-12-31T16:50:03;100530.0;;;14.3;92.6
67345;BME280;54230;52.402;6.276;2022-12-31T16:55:06;100540.0;;;14.4;89.6
67345;BME280;54230;52.402;6.276;2022-12-31T17:00:04;100550.0;;;14.5;89.8
67345;BME280;54230;52.402;6.276;2022-12-31T17:05:00;100550.0;;;14.5;89.9
67345;BME280;54230;52.402;6.276;2022-12-31T17:10:02;100530.0;;;14.5;88.3
67345;BME280;54230;52.402;6.276;2022-12-31T17:15:02;100510.0;;;14.3;89.1
67345;BME280;54230;52.402;6.276;2022-12-31T17:20:02;100540.0;;;14.4;86.0
67345;BME280;54230;52.402;6.276;2022-12-31T17:25:03;100550.0;;;14.6;86.4
67345;BME280;54230;52.402;6.276;2022-12-31T17:30:18;100540.0;;;14.6;86.8
67345;BME280;54230;52.402;6.276;2022-12-31T17:35:01;100520.0;;;14.4;87.6
67345;BME280;54230;52.402;6.276;2022-12-31T17:40:00;100580.0;;;14.4;87.3
67345;BME280;54230;52.402;6.276;2022-12-31T17:45:02;100530.0;;;14.4;86.3
67345;BME280;54230;52.402;6.276;2022-12-31T17:50:04;100510.0;;;14.3;84.0
67345;BME280;54230;52.402;6.276;2022-12-31T17:55:00;100530.0;;;14.4;83.3
67345;BME280;54230;52.402;6.276;2022-12-31T18:00:03;100540.0;;;14.4;82.6
67345;BME280;54230;52.402;6.276;2022-12-31T18:05:00;100540.0;;;14.4;82.7
67345;BME280;54230;52.402;6.276;2022-12-31T18:10:00;100530.0;;;14.4;82.8
67345;BME280;54230;52.402;6.276;2022-12-31T18:15:00;100550.0;;;14.4;82.7
67345;BME280;54230;52.402;6.276;2022-12-31T18:20:00;100550.0;;;14.3;83.7
67345;BME280;54230;52.402;6.276;2022-12-31T18:25:00;100550.0;;;14.3;83.9
67345;BME280;54230;52.402;6.276;2022-12-31T18:30:00;100540.0;;;14.3;82.6
67345;BME280;54230;52.402;6.276;2022-12-31T18:35:00;100540.0;;;14.4;82.2
67345;BME280;54230;52.402;6.276;2022-12-31T18:40:00;100530.0;;;14.3;82.8
67345;BME280;54230;52.402;6.276;2022-12-31T18:45:00;100530.0;;;14.2;83.6
67345;BME280;54230;52.402;6.276;2022-12-31T18:50:00;100520.0;;;14.1;83.2
67345;BME280;54230;52.402;6.276;2022-12-31T18:55:00;100540.0;;;14.2;83.3
67345;BME280;54230;52.402;6.276;2022-12-31T19:00:00;100550.0;;;14.2;82.8
67345;BME280;54230;52.402;6.276;2022-12-31T19:05:00;100540.0;;;14.2;83.6
67345;BME280;54230;52.402;6.276;2022-12-31T19:10:00;100540.0;;;14.2;83.6
67345;BME280;54230;52.402;6.276;2022-12-31T19:15:00;100560.0;;;14.3;81.0
67345;BME280;54230;52.402;6.276;2022-12-31T19:20:00;100560.0;;;14.3;81.6
67345;BME280;54230;52.402;6.276;2022-12-31T19:25:00;100560.0;;;14.3;82.2
67345;BME280;54230;52.402;6.276;2022-12-31T19:30:00;100560.0;;;14.3;78.8
67345;BME280;54230;52.402;6.276;2022-12-31T19:35:00;100570.0;;;14.3;80.2
67345;BME280;54230;52.402;6.276;2022-12-31T19:40:00;100560.0;;;14.3;78.5
67345;BME280;54230;52.402;6.276;2022-12-31T19:45:00;100570.0;;;14.3;76.8
67345;BME280;54230;52.402;6.276;2022-12-31T19:50:00;100580.0;;;14.3;74.9
67345;BME280;54230;52.402;6.276;2022-12-31T19:55:00;100580.0;;;14.4;75.7
67345;BME280;54230;52.402;6.276;2022-12-31T20:00:00;100560.0;;;14.4;72.8
67345;BME280;54230;52.402;6.276;2022-12-31T20:05:00;100550.0;;;14.4;73.3
67345;BME280;54230;52.402;6.276;2022-12-31T20:10:00;100560.0;;;14.4;72.7
67345;BME280;54230;52.402;6.276;2022-12-31T20:15:00;100560.0;;;14.4;71.1
67345;BME280;54230;52.402;6.276;2022-12-31T20:20:00;100580.0;;;14.3;70.4
67345;BME280;54230;52.402;6.276;2022-12-31T20:25:00;100580.0;;;14.3;68.9
67345;BME280;54230;52.402;6.276;2022-12-31T20:30:00;100600.0;;;14.3;69.5
67345;BME280;54230;52.402;6.276;2022-12-31T20:35:00;100590.0;;;14.4;69.6
67345;BME280;54230;52.402;6.276;2022-12-31T20:40:00;100610.0;;;14.5;66.8
67345;BME280;54230;52.402;6.276;2022-12-31T20:45:00;100610.0;;;14.6;67.2
67345;BME280;54230;52.402;6.276;2022-12-31T20:50:00;100630.0;;;14.6;66.5
67345;BME280;54230;52.402;6.276;2022-12-31T20:55:00;100610.0;;;14.6;67.4
67345;BME280;54230;52.402;6.276;2022-12-31T21:00:00;100590.0;;;14.5;66.3
67345;BME280;54230;52.402;6.276;2022-12-31T21:05:00;100600.0;;;14.6;67.0
67345;BME280;54230;52.402;6.276;2022-12-31T21:10:00;100610.0;;;14.6;66.9
67345;BME280;54230;52.402;6.276;2022-12-31T21:15:00;100610.0;;;14.6;66.5
67345;BME280;54230;52.402;6.276;2022-12-31T21:20:00;100610.0;;;14.6;66.1
67345;BME280;54230;52.402;6.276;2022-12-31T21:25:01;100620.0;;;14.6;65.8
67345;BME280;54230;52.402;6.276;2022-12-31T21:30:00;100620.0;;;14.7;65.2
67345;BME280;54230;52.402;6.276;2022-12-31T21:35:00;100620.0;;;14.6;65.8
67345;BME280;54230;52.402;6.276;2022-12-31T21:40:00;100610.0;;;14.6;67.4
67345;BME280;54230;52.402;6.276;2022-12-31T21:45:00;100640.0;;;14.7;67.4
67345;BME280;54230;52.402;6.276;2022-12-31T21:50:00;100640.0;;;14.7;67.3
67345;BME280;54230;52.402;6.276;2022-12-31T21:55:03;100660.0;;;14.7;67.8
67345;BME280;54230;52.402;6.276;2022-12-31T22:00:00;100660.0;;;14.7;68.4
67345;BME280;54230;52.402;6.276;2022-12-31T22:05:00;100660.0;;;14.6;67.4
67345;BME280;54230;52.402;6.276;2022-12-31T22:10:00;100650.0;;;14.5;68.3
67345;BME280;54230;52.402;6.276;2022-12-31T22:15:00;100670.0;;;14.5;69.4
67345;BME280;54230;52.402;6.276;2022-12-31T22:20:00;100670.0;;;14.5;69.2
67345;BME280;54230;52.402;6.276;2022-12-31T22:25:00;100670.0;;;14.4;68.9
67345;BME280;54230;52.402;6.276;2022-12-31T22:30:00;100690.0;;;14.5;68.9
67345;BME280;54230;52.402;6.276;2022-12-31T22:35:00;100700.0;;;14.6;68.5
67345;BME280;54230;52.402;6.276;2022-12-31T22:40:00;100690.0;;;14.6;67.2
67345;BME280;54230;52.402;6.276;2022-12-31T22:45:00;100690.0;;;14.6;67.8
67345;BME280;54230;52.402;6.276;2022-12-31T22:50:00;100690.0;;;14.6;67.1
67345;BME280;54230;52.402;6.276;2022-12-31T22:55:00;100700.0;;;14.6;67.5
67345;BME280;54230;52.402;6.276;2022-12-31T23:00:00;100700.0;;;14.5;68.8
67345;BME280;54230;52.402;6.276;2022-12-31T23:05:00;100710.0;;;14.5;68.2
67345;BME280;54230;52.402;6.276;2022-12-31T23:10:00;100710.0;;;14.4;68.7
67345;BME280;54230;52.402;6.276;2022-12-31T23:15:00;100700.0;;;14.4;69.2
67345;BME280;54230;52.402;6.276;2022-12-31T23:20:01;100700.0;;;14.4;68.5
67345;BME280;54230;52.402;6.276;2022-12-31T23:25:00;100710.0;;;14.4;67.6
67345;BME280;54230;52.402;6.276;2022-12-31T23:30:00;100710.0;;;14.6;67.7
67345;BME280;54230;52.402;6.276;2022-12-31T23:35:00;100710.0;;;14.6;66.9
67345;BME280;54230;52.402;6.276;2022-12-31T23:40:00;100720.0;;;14.5;68.3
67345;BME280;54230;52.402;6.276;2022-12-31T23:45:00;100720.0;;;14.5;68.4
67345;BME280;54230;52.402;6.276;2022-12-31T23:50:00;100750.0;;;14.5;67.6
67345;BME280;54230;52.402;6.276;2022-12-31T23:55:00;100720.0;;;14.5;68.2
